sensor_id;sensor_type;location;lat;lon;timestamp;P1;durP1;ratioP1;P2;durP2;ratioP2
29370;SDS011;16357;52.188;7.838;2022-10-16T00:01:16;5.40;;;3.50;;
29370;SDS011;16357;52.188;7.838;2022-10-16T00:03:44;7.95;;;3.60;;
29370;SDS011;16357;52.188;7.838;2022-10-16T00:06:11;8.32;;;3.22;;
29370;SDS011;16357;52.188;7.838;2022-10-16T00:08:39;4.82;;;3.30;;
29370;SDS011;16357;52.188;7.838;2022-10-16T00:11:10;4.03;;;3.47;;
29370;SDS011;16357;52.188;7.838;2022-10-16T00:13:39;4.43;;;3.63;;
29370;SDS011;16357;52.188;7.838;2022-10-16T00:16:07;6.20;;;3.65;;
29370;SDS011;16357;52.188;7.838;2022-10-16T00:18:35;6.32;;;4.22;;
29370;SDS011;16357;52.188;7.838;2022-10-16T00:21:07;6.30;;;4.10;;
29370;SDS011;16357;52.188;7.838;2022-10-16T00:23:35;5.40;;;3.67;;
29370;SDS011;16357;52.188;7.838;2022-10-16T00:26:03;4.78;;;3.65;;
29370;SDS011;16357;52.188;7.838;2022-10-16T00:28:32;5.50;;;4.22;;
29370;SDS011;16357;52.188;7.838;2022-10-16T00:31:07;4.97;;;4.13;;
29370;SDS011;16357;52.188;7.838;2022-10-16T00:33:35;4.93;;;3.90;;
29370;SDS011;16357;52.188;7.838;2022-10-16T00:36:03;5.47;;;4.00;;
29370;SDS011;16357;52.188;7.838;2022-10-16T00:38:31;6.10;;;4.68;;
29370;SDS011;16357;52.188;7.838;2022-10-16T00:40:57;6.40;;;4.60;;
29370;SDS011;16357;52.188;7.838;2022-10-16T00:46:03;5.72;;;4.45;;
29370;SDS011;16357;52.188;7.838;2022-10-16T00:48:34;7.03;;;4.50;;
29370;SDS011;16357;52.188;7.838;2022-10-16T00:51:01;7.70;;;4.78;;
29370;SDS011;16357;52.188;7.838;2022-10-16T00:53:28;6.25;;;4.32;;
29370;SDS011;16357;52.188;7.838;2022-10-16T00:55:54;6.43;;;4.63;;
29370;SDS011;16357;52.188;7.838;2022-10-16T00:58:21;7.00;;;4.78;;
29370;SDS011;16357;52.188;7.838;2022-10-16T01:00:47;6.75;;;4.53;;
29370;SDS011;16357;52.188;7.838;2022-10-16T01:05:59;6.55;;;4.43;;
29370;SDS011;16357;52.188;7.838;2022-10-16T01:08:43;6.38;;;4.47;;
29370;SDS011;16357;52.188;7.838;2022-10-16T01:14:36;7.03;;;4.28;;
29370;SDS011;16357;52.188;7.838;2022-10-16T01:17:20;7.38;;;4.97;;
29370;SDS011;16357;52.188;7.838;2022-10-16T01:22:36;6.18;;;4.70;;
29370;SDS011;16357;52.188;7.838;2022-10-16T01:25:11;7.65;;;4.65;;
29370;SDS011;16357;52.188;7.838;2022-10-16T01:27:46;6.88;;;5.07;;
29370;SDS011;16357;52.188;7.838;2022-10-16T01:30:32;13.73;;;5.15;;
29370;SDS011;16357;52.188;7.838;2022-10-16T01:33:02;7.82;;;4.95;;
29370;SDS011;16357;52.188;7.838;2022-10-16T01:35:36;6.60;;;4.53;;
29370;SDS011;16357;52.188;7.838;2022-10-16T01:38:17;6.63;;;4.32;;
29370;SDS011;16357;52.188;7.838;2022-10-16T01:40:49;7.93;;;4.15;;
29370;SDS011;16357;52.188;7.838;2022-10-16T01:43:22;7.07;;;4.38;;
29370;SDS011;16357;52.188;7.838;2022-10-16T01:45:55;6.57;;;4.47;;
29370;SDS011;16357;52.188;7.838;2022-10-16T01:48:21;6.57;;;4.55;;
29370;SDS011;16357;52.188;7.838;2022-10-16T01:53:37;5.53;;;4.13;;
29370;SDS011;16357;52.188;7.838;2022-10-16T01:56:07;10.45;;;5.22;;
29370;SDS011;16357;52.188;7.838;2022-10-16T01:58:40;6.82;;;5.03;;
29370;SDS011;16357;52.188;7.838;2022-10-16T02:01:11;13.00;;;5.45;;
29370;SDS011;16357;52.188;7.838;2022-10-16T02:03:46;7.25;;;5.10;;
29370;SDS011;16357;52.188;7.838;2022-10-16T02:06:16;8.32;;;5.00;;
29370;SDS011;16357;52.188;7.838;2022-10-16T02:08:43;6.60;;;4.57;;
29370;SDS011;16357;52.188;7.838;2022-10-16T02:11:10;9.55;;;5.30;;
29370;SDS011;16357;52.188;7.838;2022-10-16T02:13:53;6.70;;;4.60;;
29370;SDS011;16357;52.188;7.838;2022-10-16T02:16:34;8.15;;;5.25;;
29370;SDS011;16357;52.188;7.838;2022-10-16T02:19:03;7.07;;;5.47;;
29370;SDS011;16357;52.188;7.838;2022-10-16T02:21:44;5.03;;;4.53;;
29370;SDS011;16357;52.188;7.838;2022-10-16T02:27:22;10.15;;;5.85;;
29370;SDS011;16357;52.188;7.838;2022-10-16T02:29:54;8.70;;;5.13;;
29370;SDS011;16357;52.188;7.838;2022-10-16T02:32:28;7.32;;;5.00;;
29370;SDS011;16357;52.188;7.838;2022-10-16T02:34:57;6.65;;;4.93;;
29370;SDS011;16357;52.188;7.838;2022-10-16T02:37:26;8.55;;;5.13;;
29370;SDS011;16357;52.188;7.838;2022-10-16T02:39:55;9.55;;;5.63;;
29370;SDS011;16357;52.188;7.838;2022-10-16T02:42:27;9.20;;;5.22;;
29370;SDS011;16357;52.188;7.838;2022-10-16T02:44:55;9.57;;;5.35;;
29370;SDS011;16357;52.188;7.838;2022-10-16T02:47:22;9.57;;;6.20;;
29370;SDS011;16357;52.188;7.838;2022-10-16T02:49:48;7.72;;;5.35;;
29370;SDS011;16357;52.188;7.838;2022-10-16T02:52:14;6.68;;;5.35;;
29370;SDS011;16357;52.188;7.838;2022-10-16T02:54:41;8.77;;;5.85;;
29370;SDS011;16357;52.188;7.838;2022-10-16T02:57:07;9.13;;;6.45;;
29370;SDS011;16357;52.188;7.838;2022-10-16T02:59:33;9.98;;;6.00;;
29370;SDS011;16357;52.188;7.838;2022-10-16T03:02:00;8.63;;;6.05;;
29370;SDS011;16357;52.188;7.838;2022-10-16T03:04:26;8.57;;;5.40;;
29370;SDS011;16357;52.188;7.838;2022-10-16T03:06:53;13.30;;;5.55;;
29370;SDS011;16357;52.188;7.838;2022-10-16T03:09:19;8.55;;;5.72;;
29370;SDS011;16357;52.188;7.838;2022-10-16T03:11:45;9.88;;;5.85;;
29370;SDS011;16357;52.188;7.838;2022-10-16T03:14:12;8.18;;;5.72;;
29370;SDS011;16357;52.188;7.838;2022-10-16T03:16:39;7.28;;;5.22;;
29370;SDS011;16357;52.188;7.838;2022-10-16T03:19:05;8.90;;;6.00;;
29370;SDS011;16357;52.188;7.838;2022-10-16T03:21:32;8.13;;;5.45;;
29370;SDS011;16357;52.188;7.838;2022-10-16T03:23:58;8.60;;;5.18;;
29370;SDS011;16357;52.188;7.838;2022-10-16T03:26:24;8.43;;;5.50;;
29370;SDS011;16357;52.188;7.838;2022-10-16T03:28:51;8.07;;;5.45;;
29370;SDS011;16357;52.188;7.838;2022-10-16T03:31:17;10.00;;;5.47;;
29370;SDS011;16357;52.188;7.838;2022-10-16T03:33:43;5.82;;;4.95;;
29370;SDS011;16357;52.188;7.838;2022-10-16T03:36:10;7.45;;;5.22;;
29370;SDS011;16357;52.188;7.838;2022-10-16T03:38:36;7.18;;;5.00;;
29370;SDS011;16357;52.188;7.838;2022-10-16T03:41:03;7.28;;;4.88;;
29370;SDS011;16357;52.188;7.838;2022-10-16T03:43:30;8.75;;;5.20;;
29370;SDS011;16357;52.188;7.838;2022-10-16T03:45:56;8.80;;;4.75;;
29370;SDS011;16357;52.188;7.838;2022-10-16T03:48:22;7.50;;;4.97;;
29370;SDS011;16357;52.188;7.838;2022-10-16T03:50:49;7.63;;;4.63;;
29370;SDS011;16357;52.188;7.838;2022-10-16T03:53:16;5.90;;;4.38;;
29370;SDS011;16357;52.188;7.838;2022-10-16T03:55:43;6.13;;;4.32;;
29370;SDS011;16357;52.188;7.838;2022-10-16T03:58:10;9.95;;;4.72;;
29370;SDS011;16357;52.188;7.838;2022-10-16T04:00:43;6.93;;;4.50;;
29370;SDS011;16357;52.188;7.838;2022-10-16T04:03:10;6.80;;;4.38;;
29370;SDS011;16357;52.188;7.838;2022-10-16T04:05:37;5.68;;;3.97;;
29370;SDS011;16357;52.188;7.838;2022-10-16T04:08:03;5.68;;;4.13;;
29370;SDS011;16357;52.188;7.838;2022-10-16T04:10:30;5.15;;;4.20;;
29370;SDS011;16357;52.188;7.838;2022-10-16T04:12:56;5.07;;;3.95;;
29370;SDS011;16357;52.188;7.838;2022-10-16T04:15:23;5.60;;;4.18;;
29370;SDS011;16357;52.188;7.838;2022-10-16T04:17:50;5.28;;;3.80;;
29370;SDS011;16357;52.188;7.838;2022-10-16T04:20:17;7.85;;;4.22;;
29370;SDS011;16357;52.188;7.838;2022-10-16T04:22:43;5.63;;;3.90;;
29370;SDS011;16357;52.188;7.838;2022-10-16T04:25:10;5.07;;;3.78;;
29370;SDS011;16357;52.188;7.838;2022-10-16T04:27:38;5.60;;;4.03;;
29370;SDS011;16357;52.188;7.838;2022-10-16T04:30:10;4.53;;;3.67;;
29370;SDS011;16357;52.188;7.838;2022-10-16T04:32:37;6.50;;;4.07;;
29370;SDS011;16357;52.188;7.838;2022-10-16T04:35:03;6.30;;;4.22;;
29370;SDS011;16357;52.188;7.838;2022-10-16T04:37:30;5.68;;;3.80;;
29370;SDS011;16357;52.188;7.838;2022-10-16T04:39:56;6.30;;;4.13;;
29370;SDS011;16357;52.188;7.838;2022-10-16T04:42:22;6.95;;;3.58;;
29370;SDS011;16357;52.188;7.838;2022-10-16T04:44:49;5.07;;;3.85;;
29370;SDS011;16357;52.188;7.838;2022-10-16T04:47:15;5.38;;;3.60;;
29370;SDS011;16357;52.188;7.838;2022-10-16T04:49:42;6.78;;;3.75;;
29370;SDS011;16357;52.188;7.838;2022-10-16T04:52:08;4.47;;;3.50;;
29370;SDS011;16357;52.188;7.838;2022-10-16T04:54:35;4.28;;;3.35;;
29370;SDS011;16357;52.188;7.838;2022-10-16T04:57:02;5.00;;;3.60;;
29370;SDS011;16357;52.188;7.838;2022-10-16T04:59:28;4.03;;;3.35;;
29370;SDS011;16357;52.188;7.838;2022-10-16T05:01:55;5.63;;;3.60;;
29370;SDS011;16357;52.188;7.838;2022-10-16T05:04:21;7.05;;;3.97;;
29370;SDS011;16357;52.188;7.838;2022-10-16T05:06:48;4.70;;;3.20;;
29370;SDS011;16357;52.188;7.838;2022-10-16T05:09:14;6.70;;;3.35;;
29370;SDS011;16357;52.188;7.838;2022-10-16T05:11:41;4.22;;;3.40;;
29370;SDS011;16357;52.188;7.838;2022-10-16T05:14:07;6.97;;;3.10;;
29370;SDS011;16357;52.188;7.838;2022-10-16T05:16:33;4.00;;;3.25;;
29370;SDS011;16357;52.188;7.838;2022-10-16T05:19:00;8.02;;;2.95;;
29370;SDS011;16357;52.188;7.838;2022-10-16T05:21:46;3.90;;;2.85;;
29370;SDS011;16357;52.188;7.838;2022-10-16T05:24:12;4.97;;;3.35;;
29370;SDS011;16357;52.188;7.838;2022-10-16T05:26:39;6.95;;;3.38;;
29370;SDS011;16357;52.188;7.838;2022-10-16T05:29:05;5.63;;;2.90;;
29370;SDS011;16357;52.188;7.838;2022-10-16T05:31:32;3.92;;;2.83;;
29370;SDS011;16357;52.188;7.838;2022-10-16T05:33:59;4.07;;;3.05;;
29370;SDS011;16357;52.188;7.838;2022-10-16T05:36:26;5.10;;;2.60;;
29370;SDS011;16357;52.188;7.838;2022-10-16T05:38:52;5.20;;;2.90;;
29370;SDS011;16357;52.188;7.838;2022-10-16T05:41:19;8.43;;;3.20;;
29370;SDS011;16357;52.188;7.838;2022-10-16T05:43:47;4.85;;;2.80;;
29370;SDS011;16357;52.188;7.838;2022-10-16T05:46:14;4.47;;;2.60;;
29370;SDS011;16357;52.188;7.838;2022-10-16T05:48:41;6.25;;;2.58;;
29370;SDS011;16357;52.188;7.838;2022-10-16T05:51:09;3.90;;;2.45;;
29370;SDS011;16357;52.188;7.838;2022-10-16T05:53:37;2.95;;;2.25;;
29370;SDS011;16357;52.188;7.838;2022-10-16T05:56:06;4.78;;;2.50;;
29370;SDS011;16357;52.188;7.838;2022-10-16T05:58:35;2.65;;;2.40;;
29370;SDS011;16357;52.188;7.838;2022-10-16T06:03:31;4.22;;;2.60;;
29370;SDS011;16357;52.188;7.838;2022-10-16T06:05:57;4.60;;;2.30;;
29370;SDS011;16357;52.188;7.838;2022-10-16T06:08:23;3.05;;;2.42;;
29370;SDS011;16357;52.188;7.838;2022-10-16T06:11:06;3.60;;;2.40;;
29370;SDS011;16357;52.188;7.838;2022-10-16T06:13:34;4.05;;;2.40;;
29370;SDS011;16357;52.188;7.838;2022-10-16T06:16:01;4.47;;;2.47;;
29370;SDS011;16357;52.188;7.838;2022-10-16T06:18:29;3.92;;;2.58;;
29370;SDS011;16357;52.188;7.838;2022-10-16T06:20:57;4.18;;;2.20;;
29370;SDS011;16357;52.188;7.838;2022-10-16T06:23:24;3.65;;;2.53;;
29370;SDS011;16357;52.188;7.838;2022-10-16T06:25:51;3.63;;;2.40;;
29370;SDS011;16357;52.188;7.838;2022-10-16T06:28:18;3.67;;;2.05;;
29370;SDS011;16357;52.188;7.838;2022-10-16T06:30:44;4.57;;;2.53;;
29370;SDS011;16357;52.188;7.838;2022-10-16T06:33:11;2.85;;;2.10;;
29370;SDS011;16357;52.188;7.838;2022-10-16T06:35:38;3.63;;;2.38;;
29370;SDS011;16357;52.188;7.838;2022-10-16T06:38:04;6.40;;;2.30;;
29370;SDS011;16357;52.188;7.838;2022-10-16T06:40:31;2.65;;;2.28;;
29370;SDS011;16357;52.188;7.838;2022-10-16T06:42:57;5.28;;;2.50;;
29370;SDS011;16357;52.188;7.838;2022-10-16T06:45:24;3.33;;;2.13;;
29370;SDS011;16357;52.188;7.838;2022-10-16T06:47:50;3.75;;;2.13;;
29370;SDS011;16357;52.188;7.838;2022-10-16T06:50:33;2.65;;;2.15;;
29370;SDS011;16357;52.188;7.838;2022-10-16T06:53:00;3.58;;;2.20;;
29370;SDS011;16357;52.188;7.838;2022-10-16T06:55:26;5.13;;;2.20;;
29370;SDS011;16357;52.188;7.838;2022-10-16T06:57:53;2.28;;;1.92;;
29370;SDS011;16357;52.188;7.838;2022-10-16T07:00:19;5.03;;;2.10;;
29370;SDS011;16357;52.188;7.838;2022-10-16T07:02:45;2.38;;;1.92;;
29370;SDS011;16357;52.188;7.838;2022-10-16T07:05:12;2.10;;;1.75;;
29370;SDS011;16357;52.188;7.838;2022-10-16T07:07:38;2.08;;;1.77;;
29370;SDS011;16357;52.188;7.838;2022-10-16T07:10:05;2.35;;;1.65;;
29370;SDS011;16357;52.188;7.838;2022-10-16T07:12:31;3.00;;;1.95;;
29370;SDS011;16357;52.188;7.838;2022-10-16T07:14:58;2.70;;;1.95;;
29370;SDS011;16357;52.188;7.838;2022-10-16T07:17:24;4.10;;;1.63;;
29370;SDS011;16357;52.188;7.838;2022-10-16T07:19:50;2.80;;;1.77;;
29370;SDS011;16357;52.188;7.838;2022-10-16T07:22:19;2.58;;;1.80;;
29370;SDS011;16357;52.188;7.838;2022-10-16T07:24:45;3.83;;;1.80;;
29370;SDS011;16357;52.188;7.838;2022-10-16T07:27:17;3.88;;;1.75;;
29370;SDS011;16357;52.188;7.838;2022-10-16T07:29:44;5.70;;;2.10;;
29370;SDS011;16357;52.188;7.838;2022-10-16T07:32:10;2.30;;;1.80;;
29370;SDS011;16357;52.188;7.838;2022-10-16T07:34:36;2.25;;;1.80;;
29370;SDS011;16357;52.188;7.838;2022-10-16T07:37:02;3.40;;;1.88;;
29370;SDS011;16357;52.188;7.838;2022-10-16T07:39:29;1.90;;;1.67;;
29370;SDS011;16357;52.188;7.838;2022-10-16T07:41:55;2.70;;;1.70;;
29370;SDS011;16357;52.188;7.838;2022-10-16T07:44:22;4.38;;;1.63;;
29370;SDS011;16357;52.188;7.838;2022-10-16T07:46:48;2.75;;;1.70;;
29370;SDS011;16357;52.188;7.838;2022-10-16T07:49:14;2.50;;;1.73;;
29370;SDS011;16357;52.188;7.838;2022-10-16T07:51:41;3.95;;;2.05;;
29370;SDS011;16357;52.188;7.838;2022-10-16T07:54:08;2.75;;;1.60;;
29370;SDS011;16357;52.188;7.838;2022-10-16T07:56:35;2.83;;;1.83;;
29370;SDS011;16357;52.188;7.838;2022-10-16T07:59:08;3.47;;;1.70;;
29370;SDS011;16357;52.188;7.838;2022-10-16T08:01:34;3.10;;;2.00;;
29370;SDS011;16357;52.188;7.838;2022-10-16T08:04:00;4.40;;;2.50;;
29370;SDS011;16357;52.188;7.838;2022-10-16T08:06:27;4.25;;;2.47;;
29370;SDS011;16357;52.188;7.838;2022-10-16T08:08:54;4.50;;;2.47;;
29370;SDS011;16357;52.188;7.838;2022-10-16T08:11:21;2.30;;;2.03;;
29370;SDS011;16357;52.188;7.838;2022-10-16T08:13:49;2.58;;;2.22;;
29370;SDS011;16357;52.188;7.838;2022-10-16T08:16:15;3.78;;;1.77;;
29370;SDS011;16357;52.188;7.838;2022-10-16T08:18:43;4.03;;;1.60;;
29370;SDS011;16357;52.188;7.838;2022-10-16T08:21:13;3.17;;;2.03;;
29370;SDS011;16357;52.188;7.838;2022-10-16T08:23:46;3.45;;;1.75;;
29370;SDS011;16357;52.188;7.838;2022-10-16T08:26:16;2.58;;;1.60;;
29370;SDS011;16357;52.188;7.838;2022-10-16T08:28:42;2.63;;;1.63;;
29370;SDS011;16357;52.188;7.838;2022-10-16T08:31:13;4.22;;;1.80;;
29370;SDS011;16357;52.188;7.838;2022-10-16T08:33:43;2.85;;;1.80;;
29370;SDS011;16357;52.188;7.838;2022-10-16T08:36:11;2.65;;;1.88;;
29370;SDS011;16357;52.188;7.838;2022-10-16T08:38:38;3.03;;;1.77;;
29370;SDS011;16357;52.188;7.838;2022-10-16T08:46:43;4.30;;;2.20;;
29370;SDS011;16357;52.188;7.838;2022-10-16T08:49:16;2.90;;;1.77;;
29370;SDS011;16357;52.188;7.838;2022-10-16T08:51:43;2.67;;;1.48;;
29370;SDS011;16357;52.188;7.838;2022-10-16T08:54:15;8.98;;;1.50;;
29370;SDS011;16357;52.188;7.838;2022-10-16T08:56:45;2.88;;;1.85;;
29370;SDS011;16357;52.188;7.838;2022-10-16T08:59:12;5.55;;;1.90;;
29370;SDS011;16357;52.188;7.838;2022-10-16T09:01:43;6.88;;;2.05;;
29370;SDS011;16357;52.188;7.838;2022-10-16T09:07:21;4.63;;;1.92;;
29370;SDS011;16357;52.188;7.838;2022-10-16T09:17:32;3.85;;;1.80;;
29370;SDS011;16357;52.188;7.838;2022-10-16T09:25:31;4.30;;;1.60;;
29370;SDS011;16357;52.188;7.838;2022-10-16T09:27:59;4.43;;;1.50;;
29370;SDS011;16357;52.188;7.838;2022-10-16T09:30:26;2.83;;;1.65;;
29370;SDS011;16357;52.188;7.838;2022-10-16T09:32:55;5.75;;;1.50;;
29370;SDS011;16357;52.188;7.838;2022-10-16T09:35:31;2.38;;;1.50;;
29370;SDS011;16357;52.188;7.838;2022-10-16T09:38:01;4.40;;;1.35;;
29370;SDS011;16357;52.188;7.838;2022-10-16T09:40:28;3.45;;;1.33;;
29370;SDS011;16357;52.188;7.838;2022-10-16T09:43:18;2.70;;;1.40;;
29370;SDS011;16357;52.188;7.838;2022-10-16T09:46:06;1.98;;;1.23;;
29370;SDS011;16357;52.188;7.838;2022-10-16T09:51:06;4.28;;;1.30;;
29370;SDS011;16357;52.188;7.838;2022-10-16T09:53:45;3.72;;;1.42;;
29370;SDS011;16357;52.188;7.838;2022-10-16T09:56:23;4.18;;;1.55;;
29370;SDS011;16357;52.188;7.838;2022-10-16T09:58:56;4.07;;;1.38;;
29370;SDS011;16357;52.188;7.838;2022-10-16T10:01:31;3.65;;;1.20;;
29370;SDS011;16357;52.188;7.838;2022-10-16T10:04:22;4.40;;;1.15;;
29370;SDS011;16357;52.188;7.838;2022-10-16T10:06:52;5.47;;;1.48;;
29370;SDS011;16357;52.188;7.838;2022-10-16T10:09:24;3.45;;;1.15;;
29370;SDS011;16357;52.188;7.838;2022-10-16T10:14:24;3.30;;;0.93;;
29370;SDS011;16357;52.188;7.838;2022-10-16T10:20:01;2.72;;;1.52;;
29370;SDS011;16357;52.188;7.838;2022-10-16T10:22:47;3.38;;;1.10;;
29370;SDS011;16357;52.188;7.838;2022-10-16T10:50:37;4.22;;;0.98;;
29370;SDS011;16357;52.188;7.838;2022-10-16T10:58:51;5.53;;;1.40;;
29370;SDS011;16357;52.188;7.838;2022-10-16T11:01:50;3.90;;;1.00;;
29370;SDS011;16357;52.188;7.838;2022-10-16T11:07:21;3.92;;;1.85;;
29370;SDS011;16357;52.188;7.838;2022-10-16T11:09:56;4.13;;;1.67;;
29370;SDS011;16357;52.188;7.838;2022-10-16T11:12:35;2.75;;;1.60;;
29370;SDS011;16357;52.188;7.838;2022-10-16T11:15:11;3.13;;;1.85;;
29370;SDS011;16357;52.188;7.838;2022-10-16T11:17:50;4.07;;;1.92;;
29370;SDS011;16357;52.188;7.838;2022-10-16T11:20:23;4.70;;;2.03;;
29370;SDS011;16357;52.188;7.838;2022-10-16T11:23:05;3.72;;;2.08;;
29370;SDS011;16357;52.188;7.838;2022-10-16T11:25:40;5.75;;;2.10;;
29370;SDS011;16357;52.188;7.838;2022-10-16T11:28:13;5.53;;;2.30;;
29370;SDS011;16357;52.188;7.838;2022-10-16T11:31:08;3.42;;;2.20;;
29370;SDS011;16357;52.188;7.838;2022-10-16T11:33:41;5.68;;;2.00;;
29370;SDS011;16357;52.188;7.838;2022-10-16T11:36:16;7.88;;;2.20;;
29370;SDS011;16357;52.188;7.838;2022-10-16T11:41:42;5.22;;;2.03;;
29370;SDS011;16357;52.188;7.838;2022-10-16T11:44:14;3.22;;;1.77;;
29370;SDS011;16357;52.188;7.838;2022-10-16T11:50:09;4.00;;;1.92;;
29370;SDS011;16357;52.188;7.838;2022-10-16T11:52:57;3.85;;;1.80;;
29370;SDS011;16357;52.188;7.838;2022-10-16T11:55:33;2.75;;;1.58;;
29370;SDS011;16357;52.188;7.838;2022-10-16T11:58:17;4.90;;;1.60;;
29370;SDS011;16357;52.188;7.838;2022-10-16T12:01:05;4.13;;;1.63;;
29370;SDS011;16357;52.188;7.838;2022-10-16T12:09:37;4.93;;;1.27;;
29370;SDS011;16357;52.188;7.838;2022-10-16T12:15:15;2.90;;;1.30;;
29370;SDS011;16357;52.188;7.838;2022-10-16T12:18:00;5.93;;;1.60;;
29370;SDS011;16357;52.188;7.838;2022-10-16T12:20:30;2.65;;;1.02;;
29370;SDS011;16357;52.188;7.838;2022-10-16T12:23:02;3.30;;;1.00;;
29370;SDS011;16357;52.188;7.838;2022-10-16T12:25:32;3.45;;;1.17;;
29370;SDS011;16357;52.188;7.838;2022-10-16T12:28:16;4.63;;;1.23;;
29370;SDS011;16357;52.188;7.838;2022-10-16T12:30:53;3.63;;;1.55;;
29370;SDS011;16357;52.188;7.838;2022-10-16T12:33:34;3.45;;;1.10;;
29370;SDS011;16357;52.188;7.838;2022-10-16T12:36:09;3.55;;;0.98;;
29370;SDS011;16357;52.188;7.838;2022-10-16T12:41:12;3.90;;;1.58;;
29370;SDS011;16357;52.188;7.838;2022-10-16T12:43:53;4.95;;;1.30;;
29370;SDS011;16357;52.188;7.838;2022-10-16T12:46:22;3.13;;;1.10;;
29370;SDS011;16357;52.188;7.838;2022-10-16T12:49:05;2.65;;;1.00;;
29370;SDS011;16357;52.188;7.838;2022-10-16T12:51:42;2.65;;;0.90;;
29370;SDS011;16357;52.188;7.838;2022-10-16T12:57:18;4.88;;;1.20;;
29370;SDS011;16357;52.188;7.838;2022-10-16T12:59:43;3.88;;;1.23;;
29370;SDS011;16357;52.188;7.838;2022-10-16T13:02:34;5.60;;;1.50;;
29370;SDS011;16357;52.188;7.838;2022-10-16T13:08:18;2.95;;;1.10;;
29370;SDS011;16357;52.188;7.838;2022-10-16T13:11:05;3.58;;;1.23;;
29370;SDS011;16357;52.188;7.838;2022-10-16T13:19:20;3.08;;;0.88;;
29370;SDS011;16357;52.188;7.838;2022-10-16T13:22:17;5.80;;;1.10;;
29370;SDS011;16357;52.188;7.838;2022-10-16T13:25:02;4.07;;;1.27;;
29370;SDS011;16357;52.188;7.838;2022-10-16T13:27:47;2.95;;;0.98;;
29370;SDS011;16357;52.188;7.838;2022-10-16T13:30:26;3.70;;;1.10;;
29370;SDS011;16357;52.188;7.838;2022-10-16T13:33:00;3.05;;;0.95;;
29370;SDS011;16357;52.188;7.838;2022-10-16T13:35:33;5.70;;;1.10;;
29370;SDS011;16357;52.188;7.838;2022-10-16T13:38:04;3.25;;;1.23;;
29370;SDS011;16357;52.188;7.838;2022-10-16T13:40:31;4.15;;;1.30;;
29370;SDS011;16357;52.188;7.838;2022-10-16T13:42:59;4.72;;;1.20;;
29370;SDS011;16357;52.188;7.838;2022-10-16T13:45:26;4.07;;;1.20;;
29370;SDS011;16357;52.188;7.838;2022-10-16T13:48:05;3.35;;;1.30;;
29370;SDS011;16357;52.188;7.838;2022-10-16T13:50:35;5.38;;;1.77;;
29370;SDS011;16357;52.188;7.838;2022-10-16T13:53:05;6.10;;;2.15;;
29370;SDS011;16357;52.188;7.838;2022-10-16T13:55:32;3.92;;;1.35;;
29370;SDS011;16357;52.188;7.838;2022-10-16T13:58:11;3.40;;;1.08;;
29370;SDS011;16357;52.188;7.838;2022-10-16T14:00:39;4.95;;;1.20;;
29370;SDS011;16357;52.188;7.838;2022-10-16T14:03:18;4.32;;;1.27;;
29370;SDS011;16357;52.188;7.838;2022-10-16T14:05:49;3.40;;;1.30;;
29370;SDS011;16357;52.188;7.838;2022-10-16T14:08:18;3.78;;;1.30;;
29370;SDS011;16357;52.188;7.838;2022-10-16T14:10:49;3.42;;;1.10;;
29370;SDS011;16357;52.188;7.838;2022-10-16T14:13:18;4.22;;;1.40;;
29370;SDS011;16357;52.188;7.838;2022-10-16T14:15:49;3.65;;;1.15;;
29370;SDS011;16357;52.188;7.838;2022-10-16T14:18:20;6.03;;;1.63;;
29370;SDS011;16357;52.188;7.838;2022-10-16T14:20:49;7.10;;;1.50;;
29370;SDS011;16357;52.188;7.838;2022-10-16T14:23:23;4.90;;;1.42;;
29370;SDS011;16357;52.188;7.838;2022-10-16T14:26:04;5.50;;;1.33;;
29370;SDS011;16357;52.188;7.838;2022-10-16T14:28:34;6.00;;;1.50;;
29370;SDS011;16357;52.188;7.838;2022-10-16T14:31:03;6.55;;;1.25;;
29370;SDS011;16357;52.188;7.838;2022-10-16T14:33:46;4.72;;;1.58;;
29370;SDS011;16357;52.188;7.838;2022-10-16T14:36:13;5.05;;;1.52;;
29370;SDS011;16357;52.188;7.838;2022-10-16T14:38:58;4.90;;;1.17;;
29370;SDS011;16357;52.188;7.838;2022-10-16T14:41:24;4.50;;;1.23;;
29370;SDS011;16357;52.188;7.838;2022-10-16T14:43:53;3.47;;;1.40;;
29370;SDS011;16357;52.188;7.838;2022-10-16T14:46:22;4.05;;;0.95;;
29370;SDS011;16357;52.188;7.838;2022-10-16T14:49:00;2.33;;;1.08;;
29370;SDS011;16357;52.188;7.838;2022-10-16T14:51:30;3.63;;;0.95;;
29370;SDS011;16357;52.188;7.838;2022-10-16T14:53:56;2.95;;;1.05;;
29370;SDS011;16357;52.188;7.838;2022-10-16T14:56:28;2.55;;;1.08;;
29370;SDS011;16357;52.188;7.838;2022-10-16T14:58:58;3.53;;;1.10;;
29370;SDS011;16357;52.188;7.838;2022-10-16T15:01:25;4.03;;;1.10;;
29370;SDS011;16357;52.188;7.838;2022-10-16T15:03:51;3.70;;;1.08;;
29370;SDS011;16357;52.188;7.838;2022-10-16T15:06:21;4.28;;;1.02;;
29370;SDS011;16357;52.188;7.838;2022-10-16T15:08:48;3.35;;;0.80;;
29370;SDS011;16357;52.188;7.838;2022-10-16T15:11:15;4.40;;;1.42;;
29370;SDS011;16357;52.188;7.838;2022-10-16T15:13:43;3.30;;;1.00;;
29370;SDS011;16357;52.188;7.838;2022-10-16T15:16:14;2.83;;;1.10;;
29370;SDS011;16357;52.188;7.838;2022-10-16T15:18:42;2.13;;;0.95;;
29370;SDS011;16357;52.188;7.838;2022-10-16T15:21:15;3.42;;;1.13;;
29370;SDS011;16357;52.188;7.838;2022-10-16T15:23:50;3.45;;;1.10;;
29370;SDS011;16357;52.188;7.838;2022-10-16T15:26:17;4.85;;;1.10;;
29370;SDS011;16357;52.188;7.838;2022-10-16T15:28:46;1.88;;;0.82;;
29370;SDS011;16357;52.188;7.838;2022-10-16T15:31:13;2.00;;;0.70;;
29370;SDS011;16357;52.188;7.838;2022-10-16T15:33:39;2.60;;;0.90;;
29370;SDS011;16357;52.188;7.838;2022-10-16T15:36:06;4.15;;;1.00;;
29370;SDS011;16357;52.188;7.838;2022-10-16T15:38:32;3.92;;;1.00;;
29370;SDS011;16357;52.188;7.838;2022-10-16T15:40:59;3.45;;;0.95;;
29370;SDS011;16357;52.188;7.838;2022-10-16T15:43:25;6.20;;;1.27;;
29370;SDS011;16357;52.188;7.838;2022-10-16T15:45:58;1.50;;;0.80;;
29370;SDS011;16357;52.188;7.838;2022-10-16T15:48:27;3.73;;;0.73;;
29370;SDS011;16357;52.188;7.838;2022-10-16T15:50:54;3.55;;;1.00;;
29370;SDS011;16357;52.188;7.838;2022-10-16T15:53:21;5.72;;;1.27;;
29370;SDS011;16357;52.188;7.838;2022-10-16T15:55:48;3.80;;;1.20;;
29370;SDS011;16357;52.188;7.838;2022-10-16T15:58:15;4.75;;;1.02;;
29370;SDS011;16357;52.188;7.838;2022-10-16T16:00:41;3.95;;;1.23;;
29370;SDS011;16357;52.188;7.838;2022-10-16T16:03:08;4.10;;;1.33;;
29370;SDS011;16357;52.188;7.838;2022-10-16T16:05:37;4.22;;;1.05;;
29370;SDS011;16357;52.188;7.838;2022-10-16T16:10:37;3.95;;;1.23;;
29370;SDS011;16357;52.188;7.838;2022-10-16T16:13:05;4.00;;;1.10;;
29370;SDS011;16357;52.188;7.838;2022-10-16T16:15:31;3.97;;;1.15;;
29370;SDS011;16357;52.188;7.838;2022-10-16T16:17:58;2.78;;;1.27;;
29370;SDS011;16357;52.188;7.838;2022-10-16T16:20:24;6.82;;;2.70;;
29370;SDS011;16357;52.188;7.838;2022-10-16T16:22:51;4.30;;;2.08;;
29370;SDS011;16357;52.188;7.838;2022-10-16T16:25:20;4.00;;;2.05;;
29370;SDS011;16357;52.188;7.838;2022-10-16T16:27:47;5.53;;;2.20;;
29370;SDS011;16357;52.188;7.838;2022-10-16T16:30:13;4.82;;;2.30;;
29370;SDS011;16357;52.188;7.838;2022-10-16T16:32:45;5.80;;;2.22;;
29370;SDS011;16357;52.188;7.838;2022-10-16T16:35:12;4.35;;;2.55;;
29370;SDS011;16357;52.188;7.838;2022-10-16T16:37:46;4.10;;;2.25;;
29370;SDS011;16357;52.188;7.838;2022-10-16T16:40:13;5.50;;;2.30;;
29370;SDS011;16357;52.188;7.838;2022-10-16T16:42:39;4.82;;;2.17;;
29370;SDS011;16357;52.188;7.838;2022-10-16T16:45:10;6.22;;;2.50;;
29370;SDS011;16357;52.188;7.838;2022-10-16T16:47:40;5.90;;;2.97;;
29370;SDS011;16357;52.188;7.838;2022-10-16T16:50:07;4.22;;;2.55;;
29370;SDS011;16357;52.188;7.838;2022-10-16T16:52:35;6.72;;;2.80;;
29370;SDS011;16357;52.188;7.838;2022-10-16T16:55:02;5.90;;;3.22;;
29370;SDS011;16357;52.188;7.838;2022-10-16T16:57:28;5.25;;;2.88;;
29370;SDS011;16357;52.188;7.838;2022-10-16T16:59:55;9.35;;;4.72;;
29370;SDS011;16357;52.188;7.838;2022-10-16T17:02:21;7.05;;;4.70;;